createdAt,value
2023-05-19T00:02:20.823Z,15.72
2023-05-19T00:04:49.521Z,15.72
2023-05-19T00:07:20.335Z,15.70
2023-05-19T00:09:47.494Z,15.70
2023-05-19T00:12:15.046Z,15.69
2023-05-19T00:14:42.362Z,15.69
2023-05-19T00:17:09.670Z,15.70
2023-05-19T00:19:38.014Z,15.68
2023-05-19T00:22:05.388Z,15.69
2023-05-19T00:24:33.110Z,15.66
2023-05-19T00:27:00.040Z,15.66
2023-05-19T00:29:27.177Z,15.62
2023-05-19T00:31:54.153Z,15.60
2023-05-19T00:34:21.183Z,15.57
2023-05-19T00:36:48.070Z,15.55
2023-05-19T00:39:15.378Z,15.53
2023-05-19T00:41:42.586Z,15.51
2023-05-19T00:44:10.549Z,15.46
2023-05-19T00:46:38.000Z,15.44
2023-05-19T00:49:04.902Z,15.42
2023-05-19T00:51:32.061Z,15.42
2023-05-19T00:53:59.081Z,15.40
2023-05-19T00:56:26.461Z,15.39
2023-05-19T00:58:54.318Z,15.38
2023-05-19T01:01:22.343Z,15.36
2023-05-19T01:03:50.187Z,15.35
2023-05-19T01:06:21.140Z,15.33
2023-05-19T01:08:48.959Z,15.30
2023-05-19T01:11:15.852Z,15.29
2023-05-19T01:13:43.329Z,15.29
2023-05-19T01:16:32.989Z,15.22
2023-05-19T01:19:39.396Z,15.18
2023-05-19T01:22:44.373Z,15.14
2023-05-19T01:25:57.614Z,15.10
2023-05-19T01:28:59.932Z,15.09
2023-05-19T01:31:27.131Z,15.14
2023-05-19T01:33:55.280Z,15.14
2023-05-19T01:36:25.730Z,15.13
2023-05-19T01:39:00.309Z,15.14
2023-05-19T01:41:28.498Z,15.15
2023-05-19T01:43:57.060Z,15.14
2023-05-19T01:46:24.969Z,15.14
2023-05-19T01:48:53.360Z,15.16
2023-05-19T01:51:20.247Z,15.16
2023-05-19T01:53:47.164Z,15.17
2023-05-19T01:56:22.130Z,15.13
2023-05-19T01:58:58.952Z,15.11
2023-05-19T02:01:56.091Z,15.05
2023-05-19T02:04:50.364Z,15.04
2023-05-19T02:07:30.160Z,15.00
2023-05-19T02:10:18.012Z,14.96
2023-05-19T02:12:46.080Z,14.98
2023-05-19T02:15:18.408Z,14.91
2023-05-19T02:17:48.178Z,14.89
2023-05-19T02:20:18.760Z,14.83
2023-05-19T02:22:45.984Z,14.82
2023-05-19T02:25:13.605Z,14.76
2023-05-19T02:27:41.971Z,14.71
2023-05-19T02:30:10.261Z,14.67
2023-05-19T02:32:37.284Z,14.64
2023-05-19T02:35:04.793Z,14.60
2023-05-19T02:37:32.510Z,14.57
2023-05-19T02:39:59.407Z,14.51
2023-05-19T02:42:26.326Z,14.48
2023-05-19T02:44:55.318Z,14.45
2023-05-19T02:47:22.765Z,14.43
2023-05-19T02:49:52.697Z,14.39
2023-05-19T02:52:19.604Z,14.39
2023-05-19T02:54:46.735Z,14.39
2023-05-19T02:57:13.611Z,14.39
2023-05-19T02:59:41.018Z,14.38
2023-05-19T03:02:07.962Z,14.37
2023-05-19T03:04:41.465Z,14.37
2023-05-19T03:07:10.163Z,14.37
2023-05-19T03:09:40.640Z,14.34
2023-05-19T03:12:07.950Z,14.36
2023-05-19T03:14:37.348Z,14.35
2023-05-19T03:17:07.789Z,14.33
2023-05-19T03:19:34.879Z,14.35
2023-05-19T03:22:01.819Z,14.35
2023-05-19T03:24:29.309Z,14.37
2023-05-19T03:26:56.351Z,14.38
2023-05-19T03:29:23.493Z,14.39
2023-05-19T03:31:52.161Z,14.40
2023-05-19T03:34:19.205Z,14.42
2023-05-19T03:36:46.354Z,14.42
2023-05-19T03:39:16.824Z,14.45
2023-05-19T03:41:45.726Z,14.45
2023-05-19T03:44:12.723Z,14.44
2023-05-19T03:46:39.668Z,14.47
2023-05-19T03:49:25.143Z,14.47
2023-05-19T03:51:58.162Z,14.48
2023-05-19T03:54:46.143Z,14.48
2023-05-19T03:57:14.136Z,14.47
2023-05-19T03:59:41.406Z,14.48
2023-05-19T04:02:08.543Z,14.50
2023-05-19T04:04:37.211Z,14.52
2023-05-19T04:07:04.674Z,14.53
2023-05-19T04:09:35.021Z,14.54
2023-05-19T04:12:05.244Z,14.54
2023-05-19T04:14:32.209Z,14.54
2023-05-19T04:16:59.799Z,14.55
2023-05-19T04:19:27.515Z,14.56
2023-05-19T04:21:55.682Z,14.56
2023-05-19T04:24:22.597Z,14.57
2023-05-19T04:26:50.091Z,14.58
2023-05-19T04:29:18.944Z,14.59
2023-05-19T04:31:46.573Z,14.61
2023-05-19T04:34:13.618Z,14.64
2023-05-19T04:36:41.625Z,14.69
2023-05-19T04:39:09.954Z,14.71
2023-05-19T04:41:40.359Z,14.72
2023-05-19T04:44:11.032Z,14.75
2023-05-19T04:46:38.214Z,14.76
2023-05-19T04:49:06.046Z,14.79
2023-05-19T04:51:33.197Z,14.81
2023-05-19T04:54:01.577Z,14.83
2023-05-19T04:56:28.889Z,14.85
2023-05-19T04:58:56.476Z,14.86
2023-05-19T05:01:26.012Z,14.87
2023-05-19T05:03:55.648Z,14.90
2023-05-19T05:06:22.781Z,14.93
2023-05-19T05:08:50.852Z,14.97
2023-05-19T05:11:18.713Z,14.99
2023-05-19T05:13:46.750Z,15.01
2023-05-19T05:16:14.955Z,15.03
2023-05-19T05:18:44.392Z,15.08
2023-05-19T05:21:12.373Z,15.11
2023-05-19T05:23:40.513Z,15.16
2023-05-19T05:26:17.443Z,15.19
2023-05-19T05:28:46.020Z,15.27
2023-05-19T05:31:13.038Z,15.33
2023-05-19T05:33:41.424Z,15.38
2023-05-19T05:36:09.051Z,15.43
2023-05-19T05:38:37.111Z,15.50
2023-05-19T05:41:04.294Z,15.57
2023-05-19T05:43:32.780Z,15.64
2023-05-19T05:46:02.975Z,15.61
2023-05-19T05:48:30.417Z,15.78
2023-05-19T05:50:59.572Z,15.82
2023-05-19T05:53:32.237Z,15.87
2023-05-19T05:56:01.224Z,15.93
2023-05-19T05:58:37.822Z,15.98
2023-05-19T06:01:05.483Z,16.04
2023-05-19T06:03:33.545Z,16.11
2023-05-19T06:06:06.239Z,16.16
2023-05-19T06:08:34.869Z,16.21
2023-05-19T06:11:06.316Z,16.27
2023-05-19T06:13:33.637Z,16.33
2023-05-19T06:16:01.984Z,16.39
2023-05-19T06:18:38.324Z,16.44
2023-05-19T06:21:05.254Z,16.50
2023-05-19T06:23:32.436Z,16.55
2023-05-19T06:26:00.151Z,16.60
2023-05-19T06:28:27.493Z,16.66
2023-05-19T06:30:55.940Z,16.70
2023-05-19T06:33:32.516Z,16.77
2023-05-19T06:35:59.962Z,16.81
2023-05-19T06:38:26.956Z,16.87
2023-05-19T06:40:53.945Z,16.92
2023-05-19T06:43:21.275Z,16.96
2023-05-19T06:45:56.186Z,17.02
2023-05-19T06:48:25.154Z,17.05
2023-05-19T06:50:52.567Z,17.11
2023-05-19T06:53:21.305Z,17.19
2023-05-19T06:55:59.479Z,17.27
2023-05-19T06:58:28.135Z,17.35
2023-05-19T07:00:56.023Z,17.43
2023-05-19T07:03:27.922Z,17.50
2023-05-19T07:05:55.857Z,17.56
2023-05-19T07:08:23.222Z,17.66
2023-05-19T07:10:50.130Z,17.74
2023-05-19T07:13:17.540Z,17.82
2023-05-19T07:15:45.025Z,17.91
2023-05-19T07:18:12.104Z,18.01
2023-05-19T07:20:39.013Z,18.08
2023-05-19T07:23:05.975Z,18.18
2023-05-19T07:25:33.312Z,18.29
2023-05-19T07:28:00.709Z,18.42
2023-05-19T07:30:28.788Z,18.54
2023-05-19T07:32:56.168Z,18.67
2023-05-19T07:35:23.218Z,18.78
2023-05-19T07:37:51.786Z,18.87
2023-05-19T07:40:18.944Z,18.99
2023-05-19T07:42:45.808Z,19.08
2023-05-19T07:45:13.014Z,19.20
2023-05-19T07:47:39.980Z,19.29
2023-05-19T07:50:07.723Z,19.39
2023-05-19T07:52:34.617Z,19.48
2023-05-19T07:55:01.450Z,19.55
2023-05-19T07:57:28.429Z,19.62
2023-05-19T07:59:55.639Z,19.65
2023-05-19T08:02:23.236Z,19.66
2023-05-19T08:04:50.442Z,19.65
2023-05-19T08:07:17.580Z,19.63
2023-05-19T08:09:44.445Z,19.63
2023-05-19T08:12:17.657Z,19.62
2023-05-19T08:14:44.620Z,19.67
2023-05-19T08:17:12.846Z,19.68
2023-05-19T08:19:39.711Z,19.71
2023-05-19T08:22:06.756Z,19.71
2023-05-19T08:24:36.529Z,19.67
2023-05-19T08:27:04.824Z,19.69
2023-05-19T08:29:31.915Z,19.70
2023-05-19T08:31:58.899Z,19.70
2023-05-19T08:34:25.854Z,19.70
2023-05-19T08:36:53.423Z,19.69
2023-05-19T08:39:25.140Z,19.68
2023-05-19T08:41:53.654Z,19.67
2023-05-19T08:44:20.997Z,19.64
2023-05-19T08:46:48.258Z,19.61
2023-05-19T08:49:20.053Z,19.55
2023-05-19T08:52:13.807Z,19.50
2023-05-19T08:54:55.913Z,19.49
2023-05-19T08:57:24.645Z,19.53
2023-05-19T08:59:53.366Z,19.54
2023-05-19T09:02:21.735Z,19.58
2023-05-19T09:04:49.492Z,19.62
2023-05-19T09:07:16.877Z,19.65
2023-05-19T09:09:44.024Z,19.69
2023-05-19T09:12:11.975Z,19.72
2023-05-19T09:14:39.915Z,19.78
2023-05-19T09:17:07.059Z,19.81
2023-05-19T09:19:34.447Z,19.83
2023-05-19T09:22:05.467Z,19.82
2023-05-19T09:24:34.326Z,19.81
2023-05-19T09:27:02.094Z,19.82
2023-05-19T09:29:29.222Z,19.84
2023-05-19T09:32:01.600Z,19.84
2023-05-19T09:34:28.659Z,19.85
2023-05-19T09:36:55.870Z,19.87
2023-05-19T09:39:23.993Z,19.86
2023-05-19T09:41:55.388Z,19.85
2023-05-19T09:44:30.300Z,19.86
2023-05-19T09:46:58.587Z,19.92
2023-05-19T09:49:30.455Z,19.93
2023-05-19T09:52:04.813Z,19.96
2023-05-19T09:54:34.238Z,20.03
2023-05-19T09:57:03.814Z,20.05
2023-05-19T09:59:33.722Z,20.08
2023-05-19T10:02:02.435Z,20.11
2023-05-19T10:04:30.972Z,20.11
2023-05-19T10:06:59.570Z,20.13
2023-05-19T10:09:28.689Z,20.14
2023-05-19T10:12:00.890Z,20.15
2023-05-19T10:14:30.072Z,20.15
2023-05-19T10:16:59.098Z,20.19
2023-05-19T10:19:29.341Z,20.22
2023-05-19T10:21:57.691Z,20.27
2023-05-19T10:24:25.244Z,20.32
2023-05-19T10:27:01.667Z,20.34
2023-05-19T10:29:40.253Z,20.38
2023-05-19T10:32:31.097Z,20.42
2023-05-19T10:35:16.822Z,20.48
2023-05-19T10:38:13.708Z,20.53
2023-05-19T10:42:05.208Z,20.56
2023-05-19T10:44:53.754Z,20.64
2023-05-19T10:47:25.802Z,20.69
2023-05-19T10:49:54.242Z,20.73
2023-05-19T10:52:29.767Z,20.75
2023-05-19T10:54:58.334Z,20.78
2023-05-19T10:57:31.763Z,20.77
2023-05-19T11:00:01.098Z,20.79
2023-05-19T11:02:42.965Z,20.72
2023-05-19T11:05:18.547Z,20.68
2023-05-19T11:08:06.247Z,20.63
2023-05-19T11:10:33.691Z,20.67
2023-05-19T11:13:01.096Z,20.66
2023-05-19T11:15:28.848Z,20.65
2023-05-19T11:17:56.183Z,20.64
2023-05-19T11:20:34.752Z,20.60
2023-05-19T11:23:08.473Z,20.61
2023-05-19T11:25:47.719Z,20.57
2023-05-19T11:28:19.651Z,20.57
2023-05-19T11:30:52.155Z,20.55
2023-05-19T11:33:21.620Z,20.54
2023-05-19T11:35:50.318Z,20.50
2023-05-19T11:38:19.146Z,20.44
2023-05-19T11:40:47.172Z,20.45
2023-05-19T11:43:14.147Z,20.43
2023-05-19T11:45:41.419Z,20.42
2023-05-19T11:48:18.853Z,20.37
2023-05-19T11:50:46.830Z,20.40
2023-05-19T11:53:15.472Z,20.38
2023-05-19T11:55:46.046Z,20.36
2023-05-19T11:58:13.331Z,20.38
2023-05-19T12:00:42.770Z,20.37
2023-05-19T12:03:10.075Z,20.38
2023-05-19T12:05:43.898Z,20.35
2023-05-19T12:08:12.368Z,20.35
2023-05-19T12:10:40.697Z,20.33
2023-05-19T12:13:11.493Z,20.32
2023-05-19T12:15:39.299Z,20.34
2023-05-19T12:18:14.479Z,20.33
2023-05-19T12:20:41.740Z,20.31
2023-05-19T12:23:09.215Z,20.29
2023-05-19T12:25:36.911Z,20.29
2023-05-19T12:28:04.759Z,20.28
2023-05-19T12:30:33.567Z,20.29
2023-05-19T12:33:02.149Z,20.33
2023-05-19T12:35:33.649Z,20.34
2023-05-19T12:38:07.239Z,20.35
2023-05-19T12:40:36.501Z,20.40
2023-05-19T12:43:04.557Z,20.42
2023-05-19T12:45:38.685Z,20.40
2023-05-19T12:48:11.431Z,20.40
2023-05-19T12:50:38.724Z,20.44
2023-05-19T12:53:10.517Z,20.40
2023-05-19T12:55:43.234Z,20.40
2023-05-19T12:58:13.450Z,20.40
2023-05-19T13:00:44.038Z,20.42
2023-05-19T13:03:21.137Z,20.41
2023-05-19T13:05:50.851Z,20.43
2023-05-19T13:08:24.679Z,20.43
2023-05-19T13:10:51.856Z,20.44
2023-05-19T13:13:19.346Z,20.44
2023-05-19T13:15:49.212Z,20.45
2023-05-19T13:18:17.177Z,20.33
2023-05-19T13:20:46.404Z,20.41
2023-05-19T13:23:14.724Z,20.38
2023-05-19T13:25:43.742Z,20.38
2023-05-19T13:28:11.416Z,20.36
2023-05-19T13:30:40.576Z,20.32
2023-05-19T13:33:08.215Z,20.32
2023-05-19T13:35:38.385Z,20.30
2023-05-19T13:38:07.818Z,20.28
2023-05-19T13:40:35.221Z,20.27
2023-05-19T13:43:03.813Z,20.25
2023-05-19T13:45:30.983Z,20.26
2023-05-19T13:47:58.471Z,20.27
2023-05-19T13:50:26.652Z,20.28
2023-05-19T13:52:54.025Z,20.30
2023-05-19T13:55:21.510Z,20.31
2023-05-19T13:57:49.168Z,20.32
2023-05-19T14:00:18.160Z,20.34
2023-05-19T14:02:45.285Z,20.39
2023-05-19T14:05:12.409Z,20.41
2023-05-19T14:07:39.526Z,20.43
2023-05-19T14:10:07.307Z,20.44
2023-05-19T14:12:49.442Z,20.47
2023-05-19T14:15:23.606Z,20.49
2023-05-19T14:17:50.614Z,20.51
2023-05-19T14:20:17.642Z,20.54
2023-05-19T14:22:44.553Z,20.57
2023-05-19T14:25:11.540Z,20.58
2023-05-19T14:27:39.916Z,20.60
2023-05-19T14:30:08.116Z,20.62
2023-05-19T14:32:35.224Z,20.63
2023-05-19T14:35:02.370Z,20.61
2023-05-19T14:37:29.302Z,20.62
2023-05-19T14:39:57.496Z,20.63
2023-05-19T14:42:25.120Z,20.62
2023-05-19T14:44:52.119Z,20.58
2023-05-19T14:47:19.016Z,20.55
2023-05-19T14:49:46.067Z,20.52
2023-05-19T14:52:13.076Z,20.52
2023-05-19T14:54:40.029Z,20.50
2023-05-19T14:57:08.231Z,20.50
2023-05-19T14:59:38.622Z,20.46
2023-05-19T15:02:06.005Z,20.47
2023-05-19T15:04:34.274Z,20.44
2023-05-19T15:09:31.320Z,20.41
2023-05-19T15:12:00.950Z,20.40
2023-05-19T15:14:29.406Z,20.40
2023-05-19T15:16:57.863Z,20.41
2023-05-19T15:19:25.158Z,20.38
2023-05-19T15:21:52.241Z,20.35
2023-05-19T15:24:19.345Z,20.32
2023-05-19T15:26:47.382Z,20.27
2023-05-19T15:29:14.426Z,20.22
2023-05-19T15:31:41.814Z,20.19
2023-05-19T15:34:08.971Z,20.19
2023-05-19T15:36:35.968Z,20.18
2023-05-19T15:39:03.834Z,20.18
2023-05-19T15:41:30.902Z,20.19
2023-05-19T15:44:00.310Z,20.18
2023-05-19T15:46:27.803Z,20.17
2023-05-19T15:48:59.724Z,20.17
2023-05-19T15:51:27.433Z,20.17
2023-05-19T15:53:54.399Z,20.19
2023-05-19T15:56:22.785Z,20.20
2023-05-19T15:58:49.827Z,20.21
2023-05-19T16:01:17.910Z,20.21
2023-05-19T16:03:48.134Z,20.23
2023-05-19T16:06:15.194Z,20.27
2023-05-19T16:08:42.176Z,20.31
2023-05-19T16:11:09.185Z,20.34
2023-05-19T16:13:36.121Z,20.39
2023-05-19T16:16:03.346Z,20.43
2023-05-19T16:18:30.448Z,20.46
2023-05-19T16:20:57.511Z,20.51
2023-05-19T16:23:24.758Z,20.55
2023-05-19T16:25:52.504Z,20.59
2023-05-19T16:28:19.565Z,20.63
2023-05-19T16:30:46.750Z,20.64
2023-05-19T16:33:14.215Z,20.68
2023-05-19T16:35:41.347Z,20.70
2023-05-19T16:38:08.623Z,20.75
2023-05-19T16:41:16.977Z,20.72
2023-05-19T16:43:49.865Z,20.81
2023-05-19T16:46:16.869Z,20.85
2023-05-19T16:48:43.892Z,20.89
2023-05-19T16:51:10.802Z,20.90
2023-05-19T16:53:37.764Z,20.92
2023-05-19T16:56:05.235Z,20.93
2023-05-19T16:58:32.303Z,20.93
2023-05-19T17:00:59.297Z,20.94
2023-05-19T17:03:26.475Z,20.94
2023-05-19T17:05:53.706Z,20.94
2023-05-19T17:08:20.556Z,20.95
2023-05-19T17:10:47.981Z,20.95
2023-05-19T17:13:14.932Z,20.96
2023-05-19T17:15:43.387Z,20.96
2023-05-19T17:18:12.818Z,20.94
2023-05-19T17:20:39.728Z,20.94
2023-05-19T17:23:09.079Z,20.93
2023-05-19T17:25:36.358Z,20.93
2023-05-19T17:28:03.616Z,20.93
2023-05-19T17:30:31.018Z,20.93
2023-05-19T17:33:00.778Z,20.94
2023-05-19T17:35:28.521Z,20.93
2023-05-19T17:37:56.185Z,20.93
2023-05-19T17:40:23.159Z,20.93
2023-05-19T17:42:50.096Z,20.92
2023-05-19T17:45:17.696Z,20.94
2023-05-19T17:47:44.702Z,21.06
2023-05-19T17:50:11.937Z,21.11
2023-05-19T17:52:40.482Z,21.26
2023-05-19T17:55:08.935Z,21.44
2023-05-19T17:57:37.118Z,21.51
2023-05-19T18:00:05.690Z,21.50
2023-05-19T18:02:33.226Z,21.51
2023-05-19T18:05:01.167Z,21.55
2023-05-19T18:07:29.411Z,21.49
2023-05-19T18:09:56.837Z,21.48
2023-05-19T18:12:24.137Z,21.50
2023-05-19T18:14:51.294Z,21.46
2023-05-19T18:17:18.380Z,21.41
2023-05-19T18:19:45.412Z,21.36
2023-05-19T18:22:14.830Z,21.30
2023-05-19T18:24:41.823Z,21.23
2023-05-19T18:27:08.857Z,21.12
2023-05-19T18:29:35.854Z,21.01
2023-05-19T18:32:03.144Z,20.87
2023-05-19T18:34:31.398Z,20.72
2023-05-19T18:36:58.455Z,20.57
2023-05-19T18:39:27.153Z,20.41
2023-05-19T18:41:56.781Z,20.26
2023-05-19T18:44:23.760Z,20.11
2023-05-19T18:46:50.735Z,19.98
2023-05-19T18:49:17.752Z,19.84
2023-05-19T18:51:44.719Z,19.72
2023-05-19T18:54:12.771Z,19.59
2023-05-19T18:56:39.751Z,19.49
2023-05-19T18:59:06.703Z,19.38
2023-05-19T19:01:33.964Z,19.25
2023-05-19T19:04:02.010Z,19.12
2023-05-19T19:06:29.063Z,19.01
2023-05-19T19:08:56.264Z,18.86
2023-05-19T19:11:25.658Z,18.75
2023-05-19T19:13:55.423Z,18.62
2023-05-19T19:16:23.604Z,18.37
2023-05-19T19:18:50.787Z,18.35
2023-05-19T19:21:19.863Z,18.24
2023-05-19T19:23:46.824Z,18.12
2023-05-19T19:26:13.868Z,18.02
2023-05-19T19:28:41.085Z,17.91
2023-05-19T19:31:08.191Z,17.81
2023-05-19T19:33:35.142Z,17.71
2023-05-19T19:36:02.277Z,17.60
2023-05-19T19:38:29.599Z,17.49
2023-05-19T19:40:56.952Z,17.40
2023-05-19T19:43:23.957Z,17.32
2023-05-19T19:46:02.710Z,17.20
2023-05-19T19:48:29.820Z,17.19
2023-05-19T19:50:57.716Z,17.14
2023-05-19T19:53:24.933Z,17.11
2023-05-19T19:55:59.118Z,17.02
2023-05-19T19:58:27.252Z,17.00
2023-05-19T20:00:59.442Z,16.92
2023-05-19T20:03:27.019Z,16.88
2023-05-19T20:05:56.912Z,16.83
2023-05-19T20:08:25.225Z,16.80
2023-05-19T20:10:52.653Z,16.77
2023-05-19T20:13:20.194Z,16.72
2023-05-19T20:15:47.529Z,16.67
2023-05-19T20:18:14.939Z,16.61
2023-05-19T20:20:42.494Z,16.57
2023-05-19T20:23:09.646Z,16.55
2023-05-19T20:25:58.518Z,16.52
2023-05-19T20:28:30.176Z,16.54
2023-05-19T20:30:57.256Z,16.54
2023-05-19T20:33:24.233Z,16.56
2023-05-19T20:35:51.507Z,16.55
2023-05-19T20:38:18.516Z,16.57
2023-05-19T20:40:45.949Z,16.59
2023-05-19T20:43:12.977Z,16.60
2023-05-19T20:45:43.190Z,16.61
2023-05-19T20:48:11.341Z,16.64
2023-05-19T20:50:40.004Z,16.64
2023-05-19T20:53:07.562Z,16.65
2023-05-19T20:55:36.335Z,16.68
2023-05-19T20:58:03.648Z,16.70
2023-05-19T21:00:30.970Z,16.71
2023-05-19T21:02:58.198Z,16.74
2023-05-19T21:05:25.513Z,16.75
2023-05-19T21:07:52.550Z,16.77
2023-05-19T21:10:19.539Z,16.78
2023-05-19T21:12:46.725Z,16.78
2023-05-19T21:15:14.180Z,16.80
2023-05-19T21:17:41.191Z,16.81
2023-05-19T21:20:09.242Z,16.80
2023-05-19T21:22:36.430Z,16.80
2023-05-19T21:25:04.000Z,16.78
2023-05-19T21:27:32.903Z,16.73
2023-05-19T21:30:00.516Z,16.70
2023-05-19T21:32:29.536Z,16.66
2023-05-19T21:34:56.875Z,16.62
2023-05-19T21:37:23.866Z,16.58
2023-05-19T21:39:51.596Z,16.54
2023-05-19T21:42:18.705Z,16.50
2023-05-19T21:44:45.788Z,16.47
2023-05-19T21:47:12.895Z,16.47
2023-05-19T21:49:40.828Z,16.45
2023-05-19T21:52:08.067Z,16.43
2023-05-19T21:54:36.232Z,16.41
2023-05-19T21:57:03.461Z,16.41
2023-05-19T21:59:30.556Z,16.37
2023-05-19T22:01:58.383Z,16.37
2023-05-19T22:04:25.831Z,16.36
2023-05-19T22:06:52.925Z,16.37
2023-05-19T22:09:19.932Z,16.36
2023-05-19T22:11:46.981Z,16.37
2023-05-19T22:14:14.613Z,16.38
2023-05-19T22:16:41.675Z,16.38
2023-05-19T22:19:09.013Z,16.37
2023-05-19T22:21:36.572Z,16.37
2023-05-19T22:24:04.054Z,16.37
2023-05-19T22:26:31.113Z,16.37
2023-05-19T22:28:58.085Z,16.37
2023-05-19T22:31:25.060Z,16.36
2023-05-19T22:33:52.039Z,16.35
2023-05-19T22:36:19.322Z,16.32
2023-05-19T22:38:46.356Z,16.29
2023-05-19T22:41:13.484Z,16.26
2023-05-19T22:43:48.389Z,16.21
2023-05-19T22:46:15.458Z,16.15
2023-05-19T22:48:42.544Z,16.10
2023-05-19T22:51:09.691Z,16.07
2023-05-19T22:53:36.814Z,15.99
2023-05-19T22:56:03.974Z,15.95
2023-05-19T22:58:33.237Z,15.91
2023-05-19T23:01:00.259Z,15.88
2023-05-19T23:03:27.330Z,15.86
2023-05-19T23:05:54.342Z,15.84
2023-05-19T23:08:21.452Z,15.80
2023-05-19T23:10:48.670Z,15.76
2023-05-19T23:13:16.218Z,15.72
2023-05-19T23:15:43.270Z,15.70
2023-05-19T23:18:14.955Z,15.66
2023-05-19T23:20:41.982Z,15.68
2023-05-19T23:23:09.039Z,15.68
2023-05-19T23:25:36.439Z,15.68
2023-05-19T23:28:03.616Z,15.66
2023-05-19T23:30:31.477Z,15.65
2023-05-19T23:32:58.745Z,15.64
2023-05-19T23:35:25.941Z,15.65
2023-05-19T23:37:53.418Z,15.64
2023-05-19T23:40:20.590Z,15.64
2023-05-19T23:42:47.666Z,15.63
2023-05-19T23:45:14.686Z,15.63
2023-05-19T23:47:41.749Z,15.62
2023-05-19T23:50:09.467Z,15.63
2023-05-19T23:52:36.455Z,15.63
2023-05-19T23:55:03.695Z,15.63
2023-05-19T23:57:30.746Z,15.63
2023-05-19T23:59:57.636Z,15.62
